sensor_id;sensor_type;location;lat;lon;timestamp;P1;durP1;ratioP1;P2;durP2;ratioP2
20966;SDS011;10642;50.682;18.510;2024-01-07T00:00:25;10.80;;;5.70;;
20966;SDS011;10642;50.682;18.510;2024-01-07T00:02:52;9.37;;;4.93;;
20966;SDS011;10642;50.682;18.510;2024-01-07T00:05:19;14.17;;;5.87;;
20966;SDS011;10642;50.682;18.510;2024-01-07T00:07:46;11.50;;;5.67;;
20966;SDS011;10642;50.682;18.510;2024-01-07T00:10:14;11.73;;;6.27;;
20966;SDS011;10642;50.682;18.510;2024-01-07T00:12:41;9.33;;;5.33;;
20966;SDS011;10642;50.682;18.510;2024-01-07T00:15:09;11.10;;;5.43;;
20966;SDS011;10642;50.682;18.510;2024-01-07T00:17:35;9.83;;;5.67;;
20966;SDS011;10642;50.682;18.510;2024-01-07T00:20:03;9.27;;;5.23;;
20966;SDS011;10642;50.682;18.510;2024-01-07T00:22:30;11.77;;;5.77;;
20966;SDS011;10642;50.682;18.510;2024-01-07T00:24:57;8.37;;;5.20;;
20966;SDS011;10642;50.682;18.510;2024-01-07T00:27:24;10.90;;;5.07;;
20966;SDS011;10642;50.682;18.510;2024-01-07T00:29:51;12.27;;;5.17;;
20966;SDS011;10642;50.682;18.510;2024-01-07T00:32:18;9.87;;;5.23;;
20966;SDS011;10642;50.682;18.510;2024-01-07T00:34:45;9.07;;;4.77;;
20966;SDS011;10642;50.682;18.510;2024-01-07T00:37:12;11.10;;;5.00;;
20966;SDS011;10642;50.682;18.510;2024-01-07T00:39:39;10.60;;;5.13;;
20966;SDS011;10642;50.682;18.510;2024-01-07T00:42:10;11.40;;;5.87;;
20966;SDS011;10642;50.682;18.510;2024-01-07T00:44:37;10.63;;;5.07;;
20966;SDS011;10642;50.682;18.510;2024-01-07T00:47:04;9.60;;;5.00;;
20966;SDS011;10642;50.682;18.510;2024-01-07T00:49:31;12.33;;;5.53;;
20966;SDS011;10642;50.682;18.510;2024-01-07T00:51:58;10.80;;;4.87;;
20966;SDS011;10642;50.682;18.510;2024-01-07T00:54:25;11.97;;;5.63;;
20966;SDS011;10642;50.682;18.510;2024-01-07T00:56:52;10.00;;;4.90;;
20966;SDS011;10642;50.682;18.510;2024-01-07T00:59:19;11.70;;;5.30;;
20966;SDS011;10642;50.682;18.510;2024-01-07T01:01:46;14.00;;;5.80;;
20966;SDS011;10642;50.682;18.510;2024-01-07T01:04:13;10.90;;;5.10;;
20966;SDS011;10642;50.682;18.510;2024-01-07T01:06:40;10.23;;;6.00;;
20966;SDS011;10642;50.682;18.510;2024-01-07T01:09:07;12.30;;;5.20;;
20966;SDS011;10642;50.682;18.510;2024-01-07T01:11:34;8.47;;;5.13;;
20966;SDS011;10642;50.682;18.510;2024-01-07T01:14:01;10.03;;;5.77;;
20966;SDS011;10642;50.682;18.510;2024-01-07T01:16:28;11.53;;;5.37;;
20966;SDS011;10642;50.682;18.510;2024-01-07T01:18:55;9.57;;;5.37;;
20966;SDS011;10642;50.682;18.510;2024-01-07T01:21:22;12.00;;;5.50;;
20966;SDS011;10642;50.682;18.510;2024-01-07T01:23:49;10.33;;;4.73;;
20966;SDS011;10642;50.682;18.510;2024-01-07T01:26:16;10.50;;;5.30;;
20966;SDS011;10642;50.682;18.510;2024-01-07T01:28:43;9.20;;;5.37;;
20966;SDS011;10642;50.682;18.510;2024-01-07T01:31:13;11.73;;;5.50;;
20966;SDS011;10642;50.682;18.510;2024-01-07T01:33:41;14.57;;;5.57;;
20966;SDS011;10642;50.682;18.510;2024-01-07T01:36:08;9.60;;;5.10;;
20966;SDS011;10642;50.682;18.510;2024-01-07T01:38:35;12.67;;;6.03;;
20966;SDS011;10642;50.682;18.510;2024-01-07T01:41:02;10.90;;;5.70;;
20966;SDS011;10642;50.682;18.510;2024-01-07T01:43:29;14.00;;;5.33;;
20966;SDS011;10642;50.682;18.510;2024-01-07T01:45:56;9.40;;;5.17;;
20966;SDS011;10642;50.682;18.510;2024-01-07T01:48:23;9.83;;;5.13;;
20966;SDS011;10642;50.682;18.510;2024-01-07T01:50:51;7.47;;;4.67;;
20966;SDS011;10642;50.682;18.510;2024-01-07T01:53:20;10.10;;;5.37;;
20966;SDS011;10642;50.682;18.510;2024-01-07T01:55:47;10.47;;;5.30;;
20966;SDS011;10642;50.682;18.510;2024-01-07T01:58:14;9.97;;;5.33;;
20966;SDS011;10642;50.682;18.510;2024-01-07T02:00:41;10.57;;;4.93;;
20966;SDS011;10642;50.682;18.510;2024-01-07T02:03:10;11.33;;;5.53;;
20966;SDS011;10642;50.682;18.510;2024-01-07T02:05:37;11.03;;;5.43;;
20966;SDS011;10642;50.682;18.510;2024-01-07T02:08:04;11.90;;;5.80;;
20966;SDS011;10642;50.682;18.510;2024-01-07T02:10:31;10.77;;;5.67;;
20966;SDS011;10642;50.682;18.510;2024-01-07T02:13:01;11.10;;;5.37;;
20966;SDS011;10642;50.682;18.510;2024-01-07T02:15:29;13.03;;;5.93;;
20966;SDS011;10642;50.682;18.510;2024-01-07T02:17:56;13.07;;;5.97;;
20966;SDS011;10642;50.682;18.510;2024-01-07T02:20:23;9.40;;;5.03;;
20966;SDS011;10642;50.682;18.510;2024-01-07T02:22:50;10.50;;;5.20;;
20966;SDS011;10642;50.682;18.510;2024-01-07T02:25:18;11.07;;;5.80;;
20966;SDS011;10642;50.682;18.510;2024-01-07T02:27:46;12.67;;;5.53;;
20966;SDS011;10642;50.682;18.510;2024-01-07T02:30:13;8.77;;;4.50;;
20966;SDS011;10642;50.682;18.510;2024-01-07T02:32:40;10.37;;;5.20;;
20966;SDS011;10642;50.682;18.510;2024-01-07T02:35:07;13.57;;;5.33;;
20966;SDS011;10642;50.682;18.510;2024-01-07T02:37:34;10.87;;;4.50;;
20966;SDS011;10642;50.682;18.510;2024-01-07T02:40:01;10.17;;;4.73;;
20966;SDS011;10642;50.682;18.510;2024-01-07T02:42:30;11.33;;;5.13;;
20966;SDS011;10642;50.682;18.510;2024-01-07T02:44:57;11.43;;;5.30;;
20966;SDS011;10642;50.682;18.510;2024-01-07T02:47:24;11.60;;;4.60;;
20966;SDS011;10642;50.682;18.510;2024-01-07T02:49:51;10.37;;;5.13;;
20966;SDS011;10642;50.682;18.510;2024-01-07T02:52:18;9.00;;;4.73;;
20966;SDS011;10642;50.682;18.510;2024-01-07T02:54:45;7.67;;;4.60;;
20966;SDS011;10642;50.682;18.510;2024-01-07T02:57:12;8.77;;;4.20;;
20966;SDS011;10642;50.682;18.510;2024-01-07T02:59:38;11.00;;;4.97;;
20966;SDS011;10642;50.682;18.510;2024-01-07T03:02:05;8.37;;;4.13;;
20966;SDS011;10642;50.682;18.510;2024-01-07T03:04:32;10.23;;;4.60;;
20966;SDS011;10642;50.682;18.510;2024-01-07T03:06:59;12.60;;;5.00;;
20966;SDS011;10642;50.682;18.510;2024-01-07T03:09:26;9.37;;;4.73;;
20966;SDS011;10642;50.682;18.510;2024-01-07T03:11:53;9.27;;;4.53;;
20966;SDS011;10642;50.682;18.510;2024-01-07T03:14:20;10.10;;;4.27;;
20966;SDS011;10642;50.682;18.510;2024-01-07T03:16:48;10.70;;;4.30;;
20966;SDS011;10642;50.682;18.510;2024-01-07T03:19:15;9.90;;;4.97;;
20966;SDS011;10642;50.682;18.510;2024-01-07T03:21:42;9.20;;;4.73;;
20966;SDS011;10642;50.682;18.510;2024-01-07T03:24:10;10.07;;;4.67;;
20966;SDS011;10642;50.682;18.510;2024-01-07T03:26:37;8.57;;;4.07;;
20966;SDS011;10642;50.682;18.510;2024-01-07T03:29:04;10.03;;;3.90;;
20966;SDS011;10642;50.682;18.510;2024-01-07T03:31:31;9.17;;;4.23;;
20966;SDS011;10642;50.682;18.510;2024-01-07T03:33:58;9.17;;;3.90;;
20966;SDS011;10642;50.682;18.510;2024-01-07T03:36:25;8.33;;;4.17;;
20966;SDS011;10642;50.682;18.510;2024-01-07T03:38:52;8.43;;;4.30;;
20966;SDS011;10642;50.682;18.510;2024-01-07T03:41:20;11.53;;;4.70;;
20966;SDS011;10642;50.682;18.510;2024-01-07T03:43:48;10.30;;;4.77;;
20966;SDS011;10642;50.682;18.510;2024-01-07T03:46:15;11.57;;;4.03;;
20966;SDS011;10642;50.682;18.510;2024-01-07T03:48:43;9.43;;;4.13;;
20966;SDS011;10642;50.682;18.510;2024-01-07T03:51:10;9.43;;;4.03;;
20966;SDS011;10642;50.682;18.510;2024-01-07T03:53:37;7.23;;;3.60;;
20966;SDS011;10642;50.682;18.510;2024-01-07T03:56:04;7.70;;;3.90;;
20966;SDS011;10642;50.682;18.510;2024-01-07T03:58:31;8.43;;;4.43;;
20966;SDS011;10642;50.682;18.510;2024-01-07T04:00:58;8.93;;;4.57;;
20966;SDS011;10642;50.682;18.510;2024-01-07T04:03:25;8.77;;;4.20;;
20966;SDS011;10642;50.682;18.510;2024-01-07T04:05:52;7.07;;;4.00;;
20966;SDS011;10642;50.682;18.510;2024-01-07T04:08:19;8.53;;;4.37;;
20966;SDS011;10642;50.682;18.510;2024-01-07T04:10:46;8.07;;;3.97;;
20966;SDS011;10642;50.682;18.510;2024-01-07T04:13:13;8.03;;;4.60;;
20966;SDS011;10642;50.682;18.510;2024-01-07T04:15:40;8.53;;;4.33;;
20966;SDS011;10642;50.682;18.510;2024-01-07T04:18:07;8.20;;;4.53;;
20966;SDS011;10642;50.682;18.510;2024-01-07T04:20:34;9.03;;;4.67;;
20966;SDS011;10642;50.682;18.510;2024-01-07T04:23:01;9.30;;;5.17;;
20966;SDS011;10642;50.682;18.510;2024-01-07T04:25:28;9.93;;;5.53;;
20966;SDS011;10642;50.682;18.510;2024-01-07T04:27:55;9.20;;;4.77;;
20966;SDS011;10642;50.682;18.510;2024-01-07T04:30:22;10.27;;;5.03;;
20966;SDS011;10642;50.682;18.510;2024-01-07T04:32:48;8.30;;;5.03;;
20966;SDS011;10642;50.682;18.510;2024-01-07T04:35:15;9.60;;;4.77;;
20966;SDS011;10642;50.682;18.510;2024-01-07T04:37:42;9.45;;;5.38;;
20966;SDS011;10642;50.682;18.510;2024-01-07T04:40:09;11.13;;;5.17;;
20966;SDS011;10642;50.682;18.510;2024-01-07T04:42:37;10.83;;;5.27;;
20966;SDS011;10642;50.682;18.510;2024-01-07T04:45:04;7.90;;;4.93;;
20966;SDS011;10642;50.682;18.510;2024-01-07T04:47:32;7.70;;;4.73;;
20966;SDS011;10642;50.682;18.510;2024-01-07T04:50:02;10.47;;;5.07;;
20966;SDS011;10642;50.682;18.510;2024-01-07T04:52:30;12.23;;;6.20;;
20966;SDS011;10642;50.682;18.510;2024-01-07T04:54:57;11.87;;;5.20;;
20966;SDS011;10642;50.682;18.510;2024-01-07T04:57:24;12.10;;;6.07;;
20966;SDS011;10642;50.682;18.510;2024-01-07T04:59:51;9.23;;;5.60;;
20966;SDS011;10642;50.682;18.510;2024-01-07T05:02:19;11.73;;;5.87;;
20966;SDS011;10642;50.682;18.510;2024-01-07T05:04:46;13.00;;;6.73;;
20966;SDS011;10642;50.682;18.510;2024-01-07T05:07:13;11.33;;;6.17;;
20966;SDS011;10642;50.682;18.510;2024-01-07T05:09:40;10.73;;;6.43;;
20966;SDS011;10642;50.682;18.510;2024-01-07T05:12:07;11.17;;;5.67;;
20966;SDS011;10642;50.682;18.510;2024-01-07T05:14:34;11.60;;;5.07;;
20966;SDS011;10642;50.682;18.510;2024-01-07T05:17:01;10.40;;;5.63;;
20966;SDS011;10642;50.682;18.510;2024-01-07T05:19:28;11.60;;;5.47;;
20966;SDS011;10642;50.682;18.510;2024-01-07T05:21:55;12.73;;;7.03;;
20966;SDS011;10642;50.682;18.510;2024-01-07T05:24:23;12.90;;;6.10;;
20966;SDS011;10642;50.682;18.510;2024-01-07T05:26:49;12.40;;;6.13;;
20966;SDS011;10642;50.682;18.510;2024-01-07T05:29:16;10.67;;;6.10;;
20966;SDS011;10642;50.682;18.510;2024-01-07T05:31:43;10.30;;;6.00;;
20966;SDS011;10642;50.682;18.510;2024-01-07T05:34:10;11.37;;;6.43;;
20966;SDS011;10642;50.682;18.510;2024-01-07T05:36:38;11.50;;;5.50;;
20966;SDS011;10642;50.682;18.510;2024-01-07T05:39:05;9.50;;;6.57;;
20966;SDS011;10642;50.682;18.510;2024-01-07T05:41:33;10.33;;;5.80;;
20966;SDS011;10642;50.682;18.510;2024-01-07T05:44:00;12.93;;;5.70;;
20966;SDS011;10642;50.682;18.510;2024-01-07T05:46:27;10.20;;;5.37;;
20966;SDS011;10642;50.682;18.510;2024-01-07T05:48:53;10.43;;;5.40;;
20966;SDS011;10642;50.682;18.510;2024-01-07T05:51:20;12.70;;;6.40;;
20966;SDS011;10642;50.682;18.510;2024-01-07T05:53:47;14.20;;;6.60;;
20966;SDS011;10642;50.682;18.510;2024-01-07T05:56:14;14.80;;;6.60;;
20966;SDS011;10642;50.682;18.510;2024-01-07T05:58:41;10.70;;;5.47;;
20966;SDS011;10642;50.682;18.510;2024-01-07T06:01:08;11.33;;;6.13;;
20966;SDS011;10642;50.682;18.510;2024-01-07T06:03:36;13.10;;;6.57;;
20966;SDS011;10642;50.682;18.510;2024-01-07T06:06:03;14.43;;;7.57;;
20966;SDS011;10642;50.682;18.510;2024-01-07T06:08:30;12.63;;;7.03;;
20966;SDS011;10642;50.682;18.510;2024-01-07T06:10:57;13.70;;;6.83;;
20966;SDS011;10642;50.682;18.510;2024-01-07T06:13:24;14.13;;;7.80;;
20966;SDS011;10642;50.682;18.510;2024-01-07T06:15:52;13.00;;;6.50;;
20966;SDS011;10642;50.682;18.510;2024-01-07T06:18:19;13.57;;;6.10;;
20966;SDS011;10642;50.682;18.510;2024-01-07T06:20:46;14.13;;;5.83;;
20966;SDS011;10642;50.682;18.510;2024-01-07T06:23:13;13.27;;;5.90;;
20966;SDS011;10642;50.682;18.510;2024-01-07T06:25:40;12.97;;;6.37;;
20966;SDS011;10642;50.682;18.510;2024-01-07T06:28:08;14.33;;;7.00;;
20966;SDS011;10642;50.682;18.510;2024-01-07T06:30:37;16.07;;;7.07;;
20966;SDS011;10642;50.682;18.510;2024-01-07T06:33:04;12.87;;;6.57;;
20966;SDS011;10642;50.682;18.510;2024-01-07T06:35:32;20.03;;;6.73;;
20966;SDS011;10642;50.682;18.510;2024-01-07T06:37:59;12.10;;;6.67;;
20966;SDS011;10642;50.682;18.510;2024-01-07T06:40:26;15.53;;;7.00;;
20966;SDS011;10642;50.682;18.510;2024-01-07T06:42:53;16.70;;;7.57;;
20966;SDS011;10642;50.682;18.510;2024-01-07T06:45:20;14.33;;;7.60;;
20966;SDS011;10642;50.682;18.510;2024-01-07T06:47:47;13.53;;;6.90;;
20966;SDS011;10642;50.682;18.510;2024-01-07T06:50:14;17.87;;;8.60;;
20966;SDS011;10642;50.682;18.510;2024-01-07T06:52:41;17.47;;;8.47;;
20966;SDS011;10642;50.682;18.510;2024-01-07T06:55:07;17.07;;;9.10;;
20966;SDS011;10642;50.682;18.510;2024-01-07T06:57:35;15.90;;;8.50;;
20966;SDS011;10642;50.682;18.510;2024-01-07T07:00:02;17.37;;;8.87;;
20966;SDS011;10642;50.682;18.510;2024-01-07T07:02:29;20.37;;;10.13;;
20966;SDS011;10642;50.682;18.510;2024-01-07T07:04:56;25.77;;;12.23;;
20966;SDS011;10642;50.682;18.510;2024-01-07T07:07:23;19.67;;;10.10;;
20966;SDS011;10642;50.682;18.510;2024-01-07T07:09:50;18.40;;;8.87;;
20966;SDS011;10642;50.682;18.510;2024-01-07T07:12:18;18.83;;;9.80;;
20966;SDS011;10642;50.682;18.510;2024-01-07T07:14:45;20.10;;;9.43;;
20966;SDS011;10642;50.682;18.510;2024-01-07T07:17:13;17.27;;;10.07;;
20966;SDS011;10642;50.682;18.510;2024-01-07T07:19:40;18.13;;;10.13;;
20966;SDS011;10642;50.682;18.510;2024-01-07T07:22:11;17.37;;;9.57;;
20966;SDS011;10642;50.682;18.510;2024-01-07T07:24:41;18.10;;;9.93;;
20966;SDS011;10642;50.682;18.510;2024-01-07T07:27:08;15.60;;;9.40;;
20966;SDS011;10642;50.682;18.510;2024-01-07T07:29:35;17.90;;;11.07;;
20966;SDS011;10642;50.682;18.510;2024-01-07T07:32:02;20.40;;;10.10;;
20966;SDS011;10642;50.682;18.510;2024-01-07T07:34:29;18.73;;;10.63;;
20966;SDS011;10642;50.682;18.510;2024-01-07T07:36:56;15.57;;;9.57;;
20966;SDS011;10642;50.682;18.510;2024-01-07T07:39:23;20.43;;;10.57;;
20966;SDS011;10642;50.682;18.510;2024-01-07T07:41:50;17.27;;;10.20;;
20966;SDS011;10642;50.682;18.510;2024-01-07T07:44:17;19.57;;;9.77;;
20966;SDS011;10642;50.682;18.510;2024-01-07T07:46:44;17.40;;;10.10;;
20966;SDS011;10642;50.682;18.510;2024-01-07T07:49:11;20.97;;;10.67;;
20966;SDS011;10642;50.682;18.510;2024-01-07T07:51:38;19.50;;;10.30;;
20966;SDS011;10642;50.682;18.510;2024-01-07T07:54:05;22.23;;;12.07;;
20966;SDS011;10642;50.682;18.510;2024-01-07T07:56:32;22.47;;;11.00;;
20966;SDS011;10642;50.682;18.510;2024-01-07T07:58:59;21.20;;;11.00;;
20966;SDS011;10642;50.682;18.510;2024-01-07T08:01:26;18.57;;;10.63;;
20966;SDS011;10642;50.682;18.510;2024-01-07T08:03:53;18.53;;;10.70;;
20966;SDS011;10642;50.682;18.510;2024-01-07T08:06:21;21.40;;;10.87;;
20966;SDS011;10642;50.682;18.510;2024-01-07T08:08:47;20.90;;;10.80;;
20966;SDS011;10642;50.682;18.510;2024-01-07T08:11:14;20.13;;;10.10;;
20966;SDS011;10642;50.682;18.510;2024-01-07T08:13:41;21.07;;;11.07;;
20966;SDS011;10642;50.682;18.510;2024-01-07T08:16:08;21.57;;;11.97;;
20966;SDS011;10642;50.682;18.510;2024-01-07T08:18:37;21.87;;;12.10;;
20966;SDS011;10642;50.682;18.510;2024-01-07T08:21:04;22.10;;;12.03;;
20966;SDS011;10642;50.682;18.510;2024-01-07T08:23:31;20.43;;;11.57;;
20966;SDS011;10642;50.682;18.510;2024-01-07T08:25:58;20.23;;;11.50;;
20966;SDS011;10642;50.682;18.510;2024-01-07T08:28:25;19.07;;;11.33;;
20966;SDS011;10642;50.682;18.510;2024-01-07T08:30:52;19.47;;;11.30;;
20966;SDS011;10642;50.682;18.510;2024-01-07T08:33:20;20.17;;;11.77;;
20966;SDS011;10642;50.682;18.510;2024-01-07T08:35:47;17.47;;;10.37;;
20966;SDS011;10642;50.682;18.510;2024-01-07T08:38:14;20.70;;;10.87;;
20966;SDS011;10642;50.682;18.510;2024-01-07T08:40:41;20.13;;;11.33;;
20966;SDS011;10642;50.682;18.510;2024-01-07T08:43:08;21.57;;;12.37;;
20966;SDS011;10642;50.682;18.510;2024-01-07T08:45:35;20.17;;;12.40;;
20966;SDS011;10642;50.682;18.510;2024-01-07T08:48:02;21.27;;;11.40;;
20966;SDS011;10642;50.682;18.510;2024-01-07T08:50:29;20.83;;;11.50;;
20966;SDS011;10642;50.682;18.510;2024-01-07T08:52:56;19.43;;;10.33;;
20966;SDS011;10642;50.682;18.510;2024-01-07T08:55:23;18.17;;;10.37;;
20966;SDS011;10642;50.682;18.510;2024-01-07T08:57:50;20.67;;;11.23;;
20966;SDS011;10642;50.682;18.510;2024-01-07T09:00:18;18.60;;;10.70;;
20966;SDS011;10642;50.682;18.510;2024-01-07T09:02:45;18.20;;;10.60;;
20966;SDS011;10642;50.682;18.510;2024-01-07T09:05:13;23.40;;;10.90;;
20966;SDS011;10642;50.682;18.510;2024-01-07T09:07:40;23.83;;;13.33;;
20966;SDS011;10642;50.682;18.510;2024-01-07T09:10:07;20.27;;;11.47;;
20966;SDS011;10642;50.682;18.510;2024-01-07T09:12:38;22.03;;;12.30;;
20966;SDS011;10642;50.682;18.510;2024-01-07T09:15:05;24.13;;;12.83;;
20966;SDS011;10642;50.682;18.510;2024-01-07T09:17:35;23.47;;;12.67;;
20966;SDS011;10642;50.682;18.510;2024-01-07T09:20:08;27.13;;;14.60;;
20966;SDS011;10642;50.682;18.510;2024-01-07T09:22:36;21.10;;;11.73;;
20966;SDS011;10642;50.682;18.510;2024-01-07T09:25:03;24.17;;;12.70;;
20966;SDS011;10642;50.682;18.510;2024-01-07T09:27:30;23.03;;;12.57;;
20966;SDS011;10642;50.682;18.510;2024-01-07T09:29:58;21.87;;;11.53;;
20966;SDS011;10642;50.682;18.510;2024-01-07T09:32:25;24.57;;;13.73;;
20966;SDS011;10642;50.682;18.510;2024-01-07T09:34:52;22.63;;;13.33;;
20966;SDS011;10642;50.682;18.510;2024-01-07T09:37:20;23.63;;;12.47;;
20966;SDS011;10642;50.682;18.510;2024-01-07T09:39:47;25.87;;;13.37;;
20966;SDS011;10642;50.682;18.510;2024-01-07T09:42:15;25.97;;;13.57;;
20966;SDS011;10642;50.682;18.510;2024-01-07T09:44:42;21.13;;;11.97;;
20966;SDS011;10642;50.682;18.510;2024-01-07T09:47:13;24.07;;;13.33;;
20966;SDS011;10642;50.682;18.510;2024-01-07T09:49:40;21.60;;;12.33;;
20966;SDS011;10642;50.682;18.510;2024-01-07T09:52:08;21.33;;;12.87;;
20966;SDS011;10642;50.682;18.510;2024-01-07T09:54:36;22.73;;;12.90;;
20966;SDS011;10642;50.682;18.510;2024-01-07T09:57:03;24.10;;;13.43;;
20966;SDS011;10642;50.682;18.510;2024-01-07T09:59:32;21.10;;;12.43;;
20966;SDS011;10642;50.682;18.510;2024-01-07T10:01:59;26.90;;;13.17;;
20966;SDS011;10642;50.682;18.510;2024-01-07T10:04:27;24.73;;;13.27;;
20966;SDS011;10642;50.682;18.510;2024-01-07T10:07:00;21.67;;;12.10;;
20966;SDS011;10642;50.682;18.510;2024-01-07T10:09:32;23.17;;;12.47;;
20966;SDS011;10642;50.682;18.510;2024-01-07T10:11:59;26.00;;;13.20;;
20966;SDS011;10642;50.682;18.510;2024-01-07T10:14:27;25.13;;;12.90;;
20966;SDS011;10642;50.682;18.510;2024-01-07T10:16:57;22.17;;;11.90;;
20966;SDS011;10642;50.682;18.510;2024-01-07T10:19:25;23.63;;;13.40;;
20966;SDS011;10642;50.682;18.510;2024-01-07T10:21:59;20.63;;;13.97;;
20966;SDS011;10642;50.682;18.510;2024-01-07T10:24:36;24.33;;;12.80;;
20966;SDS011;10642;50.682;18.510;2024-01-07T10:27:07;21.13;;;12.33;;
20966;SDS011;10642;50.682;18.510;2024-01-07T10:29:34;23.70;;;14.07;;
20966;SDS011;10642;50.682;18.510;2024-01-07T10:32:01;21.20;;;13.60;;
20966;SDS011;10642;50.682;18.510;2024-01-07T10:34:31;21.80;;;13.20;;
20966;SDS011;10642;50.682;18.510;2024-01-07T10:36:59;23.17;;;13.67;;
20966;SDS011;10642;50.682;18.510;2024-01-07T10:39:26;23.07;;;13.27;;
20966;SDS011;10642;50.682;18.510;2024-01-07T10:41:53;24.60;;;14.63;;
20966;SDS011;10642;50.682;18.510;2024-01-07T10:44:28;24.20;;;14.33;;
20966;SDS011;10642;50.682;18.510;2024-01-07T10:46:55;26.50;;;14.83;;
20966;SDS011;10642;50.682;18.510;2024-01-07T10:49:23;23.83;;;14.03;;
20966;SDS011;10642;50.682;18.510;2024-01-07T10:52:03;22.10;;;13.50;;
20966;SDS011;10642;50.682;18.510;2024-01-07T10:54:34;25.00;;;14.40;;
20966;SDS011;10642;50.682;18.510;2024-01-07T10:57:07;24.63;;;14.20;;
20966;SDS011;10642;50.682;18.510;2024-01-07T10:59:36;29.97;;;16.17;;
20966;SDS011;10642;50.682;18.510;2024-01-07T11:02:03;23.67;;;14.80;;
20966;SDS011;10642;50.682;18.510;2024-01-07T11:04:34;27.03;;;14.10;;
20966;SDS011;10642;50.682;18.510;2024-01-07T11:07:17;25.23;;;15.00;;
20966;SDS011;10642;50.682;18.510;2024-01-07T11:12:13;25.47;;;15.93;;
20966;SDS011;10642;50.682;18.510;2024-01-07T11:14:41;28.17;;;15.97;;
20966;SDS011;10642;50.682;18.510;2024-01-07T11:17:12;26.07;;;14.07;;
20966;SDS011;10642;50.682;18.510;2024-01-07T11:19:49;21.63;;;13.13;;
20966;SDS011;10642;50.682;18.510;2024-01-07T11:22:24;24.97;;;14.57;;
20966;SDS011;10642;50.682;18.510;2024-01-07T11:24:52;23.87;;;13.90;;
20966;SDS011;10642;50.682;18.510;2024-01-07T11:27:20;25.50;;;14.90;;
20966;SDS011;10642;50.682;18.510;2024-01-07T11:29:57;25.17;;;15.13;;
20966;SDS011;10642;50.682;18.510;2024-01-07T11:32:31;26.50;;;13.87;;
20966;SDS011;10642;50.682;18.510;2024-01-07T11:34:59;29.37;;;14.47;;
20966;SDS011;10642;50.682;18.510;2024-01-07T11:37:27;27.57;;;14.90;;
20966;SDS011;10642;50.682;18.510;2024-01-07T11:39:57;28.13;;;16.07;;
20966;SDS011;10642;50.682;18.510;2024-01-07T11:42:24;22.37;;;12.57;;
20966;SDS011;10642;50.682;18.510;2024-01-07T11:44:54;29.80;;;15.00;;
20966;SDS011;10642;50.682;18.510;2024-01-07T11:47:22;26.63;;;15.57;;
20966;SDS011;10642;50.682;18.510;2024-01-07T11:49:50;25.93;;;14.50;;
20966;SDS011;10642;50.682;18.510;2024-01-07T11:52:17;25.53;;;15.60;;
20966;SDS011;10642;50.682;18.510;2024-01-07T11:54:45;26.93;;;14.47;;
20966;SDS011;10642;50.682;18.510;2024-01-07T11:57:13;32.10;;;16.83;;
20966;SDS011;10642;50.682;18.510;2024-01-07T11:59:40;28.13;;;16.27;;
20966;SDS011;10642;50.682;18.510;2024-01-07T12:02:10;26.87;;;15.33;;
20966;SDS011;10642;50.682;18.510;2024-01-07T12:04:38;23.43;;;16.10;;
20966;SDS011;10642;50.682;18.510;2024-01-07T12:07:05;28.27;;;16.57;;
20966;SDS011;10642;50.682;18.510;2024-01-07T12:09:32;26.63;;;16.33;;
20966;SDS011;10642;50.682;18.510;2024-01-07T12:11:59;28.73;;;17.33;;
20966;SDS011;10642;50.682;18.510;2024-01-07T12:14:27;26.00;;;15.53;;
20966;SDS011;10642;50.682;18.510;2024-01-07T12:16:55;27.77;;;17.23;;
20966;SDS011;10642;50.682;18.510;2024-01-07T12:19:22;28.67;;;17.43;;
20966;SDS011;10642;50.682;18.510;2024-01-07T12:22:01;29.27;;;19.57;;
20966;SDS011;10642;50.682;18.510;2024-01-07T12:24:28;26.60;;;15.70;;
20966;SDS011;10642;50.682;18.510;2024-01-07T12:26:55;27.13;;;16.07;;
20966;SDS011;10642;50.682;18.510;2024-01-07T12:29:22;28.57;;;16.03;;
20966;SDS011;10642;50.682;18.510;2024-01-07T12:31:50;29.97;;;15.63;;
20966;SDS011;10642;50.682;18.510;2024-01-07T12:34:18;32.00;;;17.00;;
20966;SDS011;10642;50.682;18.510;2024-01-07T12:36:45;30.00;;;15.10;;
20966;SDS011;10642;50.682;18.510;2024-01-07T12:39:13;30.50;;;15.80;;
20966;SDS011;10642;50.682;18.510;2024-01-07T12:41:40;25.33;;;16.60;;
20966;SDS011;10642;50.682;18.510;2024-01-07T12:44:06;35.27;;;18.80;;
20966;SDS011;10642;50.682;18.510;2024-01-07T12:46:35;29.53;;;16.73;;
20966;SDS011;10642;50.682;18.510;2024-01-07T12:49:01;39.20;;;20.43;;
20966;SDS011;10642;50.682;18.510;2024-01-07T12:51:28;25.87;;;16.13;;
20966;SDS011;10642;50.682;18.510;2024-01-07T12:53:56;29.13;;;18.37;;
20966;SDS011;10642;50.682;18.510;2024-01-07T12:56:23;27.13;;;16.67;;
20966;SDS011;10642;50.682;18.510;2024-01-07T12:58:50;29.63;;;18.97;;
20966;SDS011;10642;50.682;18.510;2024-01-07T13:01:17;28.30;;;16.00;;
20966;SDS011;10642;50.682;18.510;2024-01-07T13:03:44;31.40;;;19.17;;
20966;SDS011;10642;50.682;18.510;2024-01-07T13:06:11;25.50;;;15.47;;
20966;SDS011;10642;50.682;18.510;2024-01-07T13:08:38;27.20;;;15.80;;
20966;SDS011;10642;50.682;18.510;2024-01-07T13:11:05;29.47;;;17.37;;
20966;SDS011;10642;50.682;18.510;2024-01-07T13:13:35;31.50;;;17.10;;
20966;SDS011;10642;50.682;18.510;2024-01-07T13:16:02;27.23;;;16.17;;
20966;SDS011;10642;50.682;18.510;2024-01-07T13:18:30;29.80;;;16.93;;
20966;SDS011;10642;50.682;18.510;2024-01-07T13:20:57;30.03;;;18.37;;
20966;SDS011;10642;50.682;18.510;2024-01-07T13:23:24;29.23;;;17.17;;
20966;SDS011;10642;50.682;18.510;2024-01-07T13:25:53;30.97;;;16.57;;
20966;SDS011;10642;50.682;18.510;2024-01-07T13:28:20;32.23;;;17.20;;
20966;SDS011;10642;50.682;18.510;2024-01-07T13:30:46;31.40;;;17.40;;
20966;SDS011;10642;50.682;18.510;2024-01-07T13:33:14;33.80;;;17.30;;
20966;SDS011;10642;50.682;18.510;2024-01-07T13:35:44;29.47;;;17.63;;
20966;SDS011;10642;50.682;18.510;2024-01-07T13:38:11;31.53;;;16.73;;
20966;SDS011;10642;50.682;18.510;2024-01-07T13:40:38;33.27;;;17.87;;
20966;SDS011;10642;50.682;18.510;2024-01-07T13:43:05;32.27;;;18.07;;
20966;SDS011;10642;50.682;18.510;2024-01-07T13:45:32;33.90;;;18.60;;
20966;SDS011;10642;50.682;18.510;2024-01-07T13:47:59;30.97;;;19.23;;
20966;SDS011;10642;50.682;18.510;2024-01-07T13:50:26;31.73;;;18.30;;
20966;SDS011;10642;50.682;18.510;2024-01-07T13:52:53;33.87;;;18.77;;
20966;SDS011;10642;50.682;18.510;2024-01-07T13:55:20;34.40;;;21.20;;
20966;SDS011;10642;50.682;18.510;2024-01-07T13:57:47;33.10;;;18.03;;
20966;SDS011;10642;50.682;18.510;2024-01-07T14:00:14;32.77;;;19.70;;
20966;SDS011;10642;50.682;18.510;2024-01-07T14:02:45;34.17;;;19.10;;
20966;SDS011;10642;50.682;18.510;2024-01-07T14:05:12;36.47;;;20.90;;
20966;SDS011;10642;50.682;18.510;2024-01-07T14:07:40;33.23;;;18.67;;
20966;SDS011;10642;50.682;18.510;2024-01-07T14:10:07;33.80;;;18.90;;
20966;SDS011;10642;50.682;18.510;2024-01-07T14:12:35;34.70;;;17.83;;
20966;SDS011;10642;50.682;18.510;2024-01-07T14:15:02;33.63;;;20.13;;
20966;SDS011;10642;50.682;18.510;2024-01-07T14:17:29;32.13;;;18.43;;
20966;SDS011;10642;50.682;18.510;2024-01-07T14:19:57;40.93;;;21.77;;
20966;SDS011;10642;50.682;18.510;2024-01-07T14:22:24;29.30;;;16.53;;